Time;durP1;ratioP1;P1;durP2;ratioP2;P2;SDS_P1;SDS_P2;PMS_P1;PMS_P2;Temp;Humidity;BMP_temperature;BMP_pressure;BME280_temperature;BME280_humidity;BME280_pressure;Samples;Min_cycle;Max_cycle;Signal;HPM_P1;HPM_P2
2023/06/25 00:01:04;;;;;;;3.53;2.30;;;;;;;;;;5112599;28;20027;-61
2023/06/25 00:03:30;;;;;;;5.83;2.83;;;;;;;;;;5111069;28;20474;-61
2023/06/25 00:05:57;;;;;;;3.73;2.50;;;;;;;;;;5092093;28;20024;-61
2023/06/25 00:08:24;;;;;;;12.40;3.20;;;;;;;;;;5091985;28;20032;-61
2023/06/25 00:10:51;;;;;;;7.10;3.20;;;;;;;;;;5088063;28;20358;-61
2023/06/25 00:13:18;;;;;;;3.73;2.50;;;;;;;;;;5090446;28;20080;-61
2023/06/25 00:15:44;;;;;;;5.83;2.90;;;;;;;;;;5107888;28;20023;-61
2023/06/25 00:18:11;;;;;;;5.77;3.03;;;;;;;;;;5100938;28;20028;-60
2023/06/25 00:20:38;;;;;;;2.73;1.93;;;;;;;;;;5088514;28;20024;-61
2023/06/25 00:23:05;;;;;;;2.00;1.73;;;;;;;;;;5089925;28;20035;-61
2023/06/25 00:25:32;;;;;;;2.87;2.07;;;;;;;;;;5104826;28;20027;-61
2023/06/25 00:28:00;;;;;;;2.43;1.83;;;;;;;;;;5095226;28;20032;-61
2023/06/25 00:30:27;;;;;;;6.20;1.93;;;;;;;;;;5093312;28;20028;-61
2023/06/25 00:32:56;;;;;;;3.93;2.33;;;;;;;;;;5093575;28;20427;-61
2023/06/25 00:35:27;;;;;;;5.00;2.67;;;;;;;;;;5089176;28;20028;-62
2023/06/25 00:37:57;;;;;;;2.67;1.83;;;;;;;;;;5088199;28;20055;-61
2023/06/25 00:40:24;;;;;;;2.83;1.63;;;;;;;;;;5097732;28;20482;-60
2023/06/25 00:42:58;;;;;;;3.03;2.13;;;;;;;;;;5106691;28;20486;-61
2023/06/25 00:45:25;;;;;;;2.43;1.87;;;;;;;;;;5107361;28;20039;-61
2023/06/25 00:47:52;;;;;;;2.50;1.90;;;;;;;;;;5115164;28;20054;-61
2023/06/25 00:50:22;;;;;;;11.00;2.00;;;;;;;;;;5096200;28;20050;-61
2023/06/25 00:52:52;;;;;;;2.93;2.00;;;;;;;;;;5096008;28;20047;-61
2023/06/25 00:55:20;;;;;;;2.30;1.67;;;;;;;;;;5095885;28;20445;-61
2023/06/25 00:57:47;;;;;;;3.43;2.23;;;;;;;;;;5095264;28;20039;-61
2023/06/25 01:00:14;;;;;;;2.57;1.67;;;;;;;;;;5092867;28;20035;-62
2023/06/25 01:02:43;;;;;;;5.10;2.50;;;;;;;;;;5090837;28;20020;-61
2023/06/25 01:05:19;;;;;;;4.43;2.77;;;;;;;;;;5090884;28;20044;-61
2023/06/25 01:07:46;;;;;;;2.53;2.00;;;;;;;;;;5090816;28;20040;-62
2023/06/25 01:10:13;;;;;;;14.33;2.70;;;;;;;;;;5103389;28;20032;-61
2023/06/25 01:12:42;;;;;;;4.93;3.37;;;;;;;;;;5094280;28;20483;-60
2023/06/25 01:15:10;;;;;;;3.63;2.47;;;;;;;;;;5110533;28;20114;-61
2023/06/25 01:17:37;;;;;;;3.80;2.30;;;;;;;;;;5115353;28;20386;-61
2023/06/25 01:20:11;;;;;;;3.20;2.67;;;;;;;;;;5113938;28;20030;-61
2023/06/25 01:22:39;;;;;;;5.03;2.90;;;;;;;;;;5101004;28;20032;-60
2023/06/25 01:25:07;;;;;;;5.23;2.77;;;;;;;;;;5112051;28;20081;-62
2023/06/25 01:27:34;;;;;;;5.97;2.77;;;;;;;;;;5110757;28;20028;-60
2023/06/25 01:30:02;;;;;;;3.17;2.30;;;;;;;;;;5110562;28;20934;-60
2023/06/25 01:32:29;;;;;;;6.60;3.60;;;;;;;;;;5110876;28;20027;-60
2023/06/25 01:34:56;;;;;;;3.90;3.07;;;;;;;;;;5108402;28;20084;-60
2023/06/25 01:37:23;;;;;;;4.10;3.13;;;;;;;;;;5113637;28;20093;-60
2023/06/25 01:39:51;;;;;;;9.20;3.60;;;;;;;;;;5115105;28;20024;-60
2023/06/25 01:42:18;;;;;;;5.03;3.23;;;;;;;;;;5111417;28;20048;-60
2023/06/25 01:44:45;;;;;;;4.23;3.27;;;;;;;;;;5094892;28;20024;-60
2023/06/25 01:47:11;;;;;;;4.03;3.00;;;;;;;;;;5094949;28;20016;-61
2023/06/25 01:49:38;;;;;;;4.93;3.57;;;;;;;;;;5092584;28;20019;-61
2023/06/25 01:52:07;;;;;;;4.10;3.17;;;;;;;;;;5090025;28;20035;-60
2023/06/25 01:54:34;;;;;;;6.67;3.87;;;;;;;;;;5090083;28;20466;-60
2023/06/25 01:57:01;;;;;;;9.20;5.73;;;;;;;;;;5090691;28;20036;-61
2023/06/25 01:59:28;;;;;;;8.13;5.13;;;;;;;;;;5108815;28;20520;-61
2023/06/25 02:01:55;;;;;;;4.20;3.13;;;;;;;;;;5113001;28;20032;-60
2023/06/25 02:04:22;;;;;;;16.87;4.47;;;;;;;;;;5114888;28;20035;-61
2023/06/25 02:06:48;;;;;;;4.80;3.37;;;;;;;;;;5112911;28;20084;-61
2023/06/25 02:09:15;;;;;;;4.67;3.70;;;;;;;;;;5094830;28;20540;-60
2023/06/25 02:11:42;;;;;;;4.13;3.43;;;;;;;;;;5094546;28;20398;-60
2023/06/25 02:14:09;;;;;;;6.00;3.60;;;;;;;;;;5106729;28;20028;-60
2023/06/25 02:16:36;;;;;;;4.13;3.10;;;;;;;;;;5089506;28;20029;-61
2023/06/25 02:19:03;;;;;;;5.03;3.57;;;;;;;;;;5089310;28;20393;-60
2023/06/25 02:21:30;;;;;;;5.37;3.53;;;;;;;;;;5090499;28;20032;-60
2023/06/25 02:23:56;;;;;;;16.63;5.27;;;;;;;;;;5103265;28;20139;-60
2023/06/25 02:26:23;;;;;;;5.33;3.83;;;;;;;;;;5101571;28;20027;-60
2023/06/25 02:28:50;;;;;;;13.57;4.43;;;;;;;;;;5101300;28;20495;-60
2023/06/25 02:31:18;;;;;;;23.80;4.47;;;;;;;;;;5114086;28;20486;-61
2023/06/25 02:33:45;;;;;;;6.50;4.23;;;;;;;;;;5112587;27;20108;-61
2023/06/25 02:36:11;;;;;;;6.43;3.93;;;;;;;;;;5113993;28;20076;-60
2023/06/25 02:38:38;;;;;;;7.73;3.77;;;;;;;;;;5110122;28;20027;-60
2023/06/25 02:41:05;;;;;;;6.13;3.43;;;;;;;;;;5088941;28;20039;-61
2023/06/25 02:43:32;;;;;;;4.47;2.83;;;;;;;;;;5088619;28;20107;-61
2023/06/25 02:45:58;;;;;;;3.83;2.90;;;;;;;;;;5088334;28;20027;-60
2023/06/25 02:48:25;;;;;;;6.00;4.00;;;;;;;;;;5088298;28;20028;-60
2023/06/25 02:50:52;;;;;;;4.17;3.43;;;;;;;;;;5099575;28;20358;-63
2023/06/25 02:53:19;;;;;;;3.60;2.97;;;;;;;;;;5108991;28;20078;-61
2023/06/25 02:55:45;;;;;;;5.47;3.23;;;;;;;;;;5096344;28;20421;-61
2023/06/25 02:58:12;;;;;;;6.20;3.43;;;;;;;;;;5090158;28;20178;-62
2023/06/25 03:00:39;;;;;;;5.53;3.87;;;;;;;;;;5075210;28;20024;-61
2023/06/25 03:03:06;;;;;;;5.67;3.30;;;;;;;;;;5070809;28;20028;-61
2023/06/25 03:05:33;;;;;;;6.20;3.80;;;;;;;;;;5091202;28;20031;-62
2023/06/25 03:08:00;;;;;;;4.47;3.00;;;;;;;;;;5079463;28;20047;-61
2023/06/25 03:10:28;;;;;;;5.00;3.23;;;;;;;;;;5108066;28;20122;-60
2023/06/25 03:12:55;;;;;;;5.60;2.70;;;;;;;;;;5109344;28;20027;-62
2023/06/25 03:15:22;;;;;;;4.90;2.93;;;;;;;;;;5100530;28;20443;-63
2023/06/25 03:17:50;;;;;;;4.07;3.00;;;;;;;;;;5072866;28;20028;-61
2023/06/25 03:20:16;;;;;;;2.83;2.23;;;;;;;;;;5111916;28;20011;-60
2023/06/25 03:22:43;;;;;;;2.97;2.57;;;;;;;;;;5102242;28;20035;-61
2023/06/25 03:25:10;;;;;;;2.90;2.50;;;;;;;;;;5090785;28;20056;-60
2023/06/25 03:27:37;;;;;;;4.97;3.23;;;;;;;;;;5087608;28;20481;-61
2023/06/25 03:30:04;;;;;;;3.10;2.27;;;;;;;;;;5088538;28;20355;-61
2023/06/25 03:32:31;;;;;;;3.10;2.00;;;;;;;;;;5090708;28;20024;-61
2023/06/25 03:34:59;;;;;;;2.83;2.13;;;;;;;;;;5106005;28;20022;-61
2023/06/25 03:37:26;;;;;;;4.50;2.50;;;;;;;;;;5099005;28;20042;-61
2023/06/25 03:39:53;;;;;;;6.50;2.57;;;;;;;;;;5112804;28;20036;-61
2023/06/25 03:42:19;;;;;;;5.40;2.67;;;;;;;;;;5112912;28;20042;-61
2023/06/25 03:44:47;;;;;;;4.47;2.67;;;;;;;;;;5111679;28;20135;-62
2023/06/25 03:47:20;;;;;;;8.13;3.77;;;;;;;;;;5105955;28;20025;-61
2023/06/25 03:49:47;;;;;;;4.50;3.27;;;;;;;;;;5087273;28;20031;-61
2023/06/25 03:52:14;;;;;;;3.23;2.40;;;;;;;;;;5099055;28;20423;-60
2023/06/25 03:54:41;;;;;;;6.07;3.60;;;;;;;;;;5107425;28;20153;-61
2023/06/25 03:57:08;;;;;;;2.87;1.97;;;;;;;;;;5109674;28;20076;-60
2023/06/25 03:59:34;;;;;;;5.53;3.27;;;;;;;;;;5112522;28;20390;-61
2023/06/25 04:02:01;;;;;;;3.83;2.23;;;;;;;;;;5093030;28;20028;-60
2023/06/25 04:04:28;;;;;;;6.13;2.50;;;;;;;;;;5091921;28;20387;-61
2023/06/25 04:06:55;;;;;;;3.13;2.20;;;;;;;;;;5085619;28;20364;-60
2023/06/25 04:09:27;;;;;;;3.77;2.87;;;;;;;;;;5078861;28;20134;-61
2023/06/25 04:11:54;;;;;;;3.47;2.63;;;;;;;;;;5105857;28;20406;-61
2023/06/25 04:14:22;;;;;;;5.43;2.87;;;;;;;;;;5105606;28;20020;-60
2023/06/25 04:16:49;;;;;;;3.10;2.30;;;;;;;;;;5087768;28;20378;-61
2023/06/25 04:19:16;;;;;;;4.53;2.90;;;;;;;;;;5088421;28;20044;-60
2023/06/25 04:21:49;;;;;;;4.50;2.83;;;;;;;;;;5104078;28;20555;-61
2023/06/25 04:24:16;;;;;;;6.23;2.53;;;;;;;;;;5095104;28;20028;-60
2023/06/25 04:26:42;;;;;;;3.97;2.50;;;;;;;;;;5112537;28;20016;-61
2023/06/25 04:29:09;;;;;;;3.10;2.33;;;;;;;;;;5109771;28;20043;-61
2023/06/25 04:31:40;;;;;;;4.03;3.00;;;;;;;;;;5091342;28;20379;-61
2023/06/25 04:34:07;;;;;;;3.40;2.23;;;;;;;;;;5094776;28;20081;-61
2023/06/25 04:36:35;;;;;;;5.13;3.53;;;;;;;;;;5093409;28;20028;-62
2023/06/25 04:39:01;;;;;;;4.07;2.83;;;;;;;;;;5086802;28;20032;-60
2023/06/25 04:41:28;;;;;;;3.27;2.57;;;;;;;;;;5087838;28;20024;-61
2023/06/25 04:43:55;;;;;;;5.13;3.37;;;;;;;;;;5091975;28;20103;-60
2023/06/25 04:46:22;;;;;;;3.67;2.47;;;;;;;;;;5105889;28;20020;-60
2023/06/25 04:48:50;;;;;;;4.43;3.33;;;;;;;;;;5112489;28;20024;-62
2023/06/25 04:51:17;;;;;;;4.13;2.73;;;;;;;;;;5071671;28;20040;-61
2023/06/25 04:53:45;;;;;;;5.00;3.13;;;;;;;;;;5074442;28;20024;-61
2023/06/25 04:56:11;;;;;;;3.67;2.63;;;;;;;;;;5086590;28;20028;-60
2023/06/25 04:58:38;;;;;;;3.50;2.43;;;;;;;;;;5086627;28;20115;-61
2023/06/25 05:01:05;;;;;;;4.07;2.87;;;;;;;;;;5087522;28;20383;-61
2023/06/25 05:03:32;;;;;;;3.73;2.80;;;;;;;;;;5086134;28;20043;-61
2023/06/25 05:05:59;;;;;;;2.73;2.27;;;;;;;;;;5091001;28;20031;-60
2023/06/25 05:08:26;;;;;;;3.03;2.40;;;;;;;;;;5071073;28;20036;-60
2023/06/25 05:10:53;;;;;;;3.70;2.90;;;;;;;;;;5102350;28;20027;-61
2023/06/25 05:13:19;;;;;;;4.07;2.40;;;;;;;;;;5112228;28;20038;-61
2023/06/25 05:15:46;;;;;;;23.67;3.60;;;;;;;;;;5100519;28;20016;-61
2023/06/25 05:18:13;;;;;;;5.93;3.70;;;;;;;;;;5086137;28;20063;-61
2023/06/25 05:20:40;;;;;;;4.43;3.00;;;;;;;;;;5086305;28;20024;-61
2023/06/25 05:23:07;;;;;;;2.90;2.20;;;;;;;;;;5086455;28;20024;-61
2023/06/25 05:25:35;;;;;;;4.97;3.30;;;;;;;;;;5086147;28;20168;-61
2023/06/25 05:28:02;;;;;;;5.53;2.60;;;;;;;;;;5091175;28;20016;-61
2023/06/25 05:30:38;;;;;;;3.27;2.33;;;;;;;;;;5091583;28;20036;-61
2023/06/25 05:33:05;;;;;;;2.77;2.33;;;;;;;;;;5093495;28;20023;-61
2023/06/25 05:35:32;;;;;;;4.00;3.17;;;;;;;;;;5095190;28;20589;-61
2023/06/25 05:37:59;;;;;;;2.73;2.20;;;;;;;;;;5095054;28;20032;-60
2023/06/25 05:40:29;;;;;;;9.77;2.93;;;;;;;;;;5103425;28;20028;-61
2023/06/25 05:43:03;;;;;;;4.63;2.73;;;;;;;;;;5109492;28;20031;-60
2023/06/25 05:45:30;;;;;;;5.75;3.10;;;;;;;;;;5109931;28;20055;-60
2023/06/25 05:47:56;;;;;;;3.07;2.13;;;;;;;;;;5110021;28;20566;-61
2023/06/25 05:50:23;;;;;;;4.07;2.37;;;;;;;;;;5114897;28;20085;-60
2023/06/25 05:52:50;;;;;;;5.30;2.70;;;;;;;;;;5115125;28;20497;-60
2023/06/25 05:55:21;;;;;;;2.63;2.00;;;;;;;;;;5101865;28;20497;-60
2023/06/25 05:57:48;;;;;;;2.47;2.07;;;;;;;;;;5094469;28;20035;-60
2023/06/25 06:00:15;;;;;;;4.17;3.27;;;;;;;;;;5091975;28;20461;-60
2023/06/25 06:02:47;;;;;;;8.50;3.53;;;;;;;;;;5087468;28;20031;-60
2023/06/25 06:05:14;;;;;;;3.43;2.73;;;;;;;;;;5072020;28;20028;-61
2023/06/25 06:07:44;;;;;;;10.20;4.50;;;;;;;;;;5077901;28;20028;-60
2023/06/25 06:10:12;;;;;;;5.87;3.87;;;;;;;;;;5105438;28;20427;-60
2023/06/25 06:12:39;;;;;;;3.53;2.73;;;;;;;;;;5112666;28;20019;-60
2023/06/25 06:15:06;;;;;;;5.17;3.27;;;;;;;;;;5103932;28;20028;-60
2023/06/25 06:17:33;;;;;;;14.27;3.40;;;;;;;;;;5094068;28;20040;-60
2023/06/25 06:19:59;;;;;;;6.03;3.33;;;;;;;;;;5104503;28;20034;-61
2023/06/25 06:22:26;;;;;;;4.17;2.40;;;;;;;;;;5097999;28;20102;-60
2023/06/25 06:24:53;;;;;;;4.17;3.03;;;;;;;;;;5098482;28;20032;-60
2023/06/25 06:27:20;;;;;;;2.33;1.93;;;;;;;;;;5099228;27;20032;-60
2023/06/25 06:29:47;;;;;;;3.27;2.33;;;;;;;;;;5095889;28;20023;-60
2023/06/25 06:32:13;;;;;;;2.90;2.30;;;;;;;;;;5108906;28;20024;-60
2023/06/25 06:34:41;;;;;;;3.93;2.60;;;;;;;;;;5106759;28;20113;-61
2023/06/25 06:37:08;;;;;;;2.67;2.00;;;;;;;;;;5109762;28;20356;-62
2023/06/25 06:39:35;;;;;;;2.73;1.93;;;;;;;;;;5106711;28;20036;-61
2023/06/25 06:42:01;;;;;;;5.07;1.60;;;;;;;;;;5094052;28;20483;-62
2023/06/25 06:44:28;;;;;;;3.33;2.17;;;;;;;;;;5093342;28;20024;-61
2023/06/25 06:46:55;;;;;;;4.07;2.07;;;;;;;;;;5089167;28;20093;-61
2023/06/25 06:49:22;;;;;;;15.83;1.80;;;;;;;;;;5088511;28;20054;-62
2023/06/25 06:51:53;;;;;;;2.57;1.70;;;;;;;;;;5104579;28;20035;-61
2023/06/25 06:54:21;;;;;;;4.13;1.57;;;;;;;;;;5108402;28;20095;-62
2023/06/25 06:56:48;;;;;;;1.63;1.30;;;;;;;;;;5112084;28;20102;-61
2023/06/25 06:59:15;;;;;;;2.50;1.60;;;;;;;;;;5113551;28;20035;-61
2023/06/25 07:01:42;;;;;;;1.40;1.03;;;;;;;;;;5113492;28;20066;-61
2023/06/25 07:04:08;;;;;;;1.37;1.00;;;;;;;;;;5112807;28;20023;-61
2023/06/25 07:06:35;;;;;;;1.60;1.23;;;;;;;;;;5114015;28;20032;-61
2023/06/25 07:09:02;;;;;;;0.70;0.50;;;;;;;;;;5107627;28;20032;-61
2023/06/25 07:11:29;;;;;;;1.73;1.03;;;;;;;;;;5088149;28;20050;-61
2023/06/25 07:13:55;;;;;;;3.07;1.40;;;;;;;;;;5092770;28;20035;-61
2023/06/25 07:16:26;;;;;;;4.07;0.97;;;;;;;;;;5107920;28;20024;-61
2023/06/25 07:18:53;;;;;;;0.87;0.67;;;;;;;;;;5102387;28;20024;-61
2023/06/25 07:21:20;;;;;;;2.00;1.03;;;;;;;;;;5092867;28;20028;-61
2023/06/25 07:23:47;;;;;;;0.87;0.67;;;;;;;;;;5093231;28;20024;-61
2023/06/25 07:26:14;;;;;;;0.60;0.50;;;;;;;;;;5093198;28;20032;-61
2023/06/25 07:28:41;;;;;;;0.87;0.50;;;;;;;;;;5093196;28;20074;-61
2023/06/25 07:31:08;;;;;;;0.90;0.50;;;;;;;;;;5089774;28;20039;-61
2023/06/25 07:33:34;;;;;;;2.67;0.80;;;;;;;;;;5087623;28;20035;-61
2023/06/25 07:36:01;;;;;;;0.90;0.77;;;;;;;;;;5087364;28;20035;-61
2023/06/25 07:38:28;;;;;;;0.33;0.30;;;;;;;;;;5087103;28;20066;-61
2023/06/25 07:40:55;;;;;;;0.73;0.70;;;;;;;;;;5090329;28;20440;-63
2023/06/25 07:43:21;;;;;;;0.53;0.53;;;;;;;;;;5092929;28;20051;-61
2023/06/25 07:45:48;;;;;;;0.40;0.40;;;;;;;;;;5092720;28;20028;-62
2023/06/25 07:48:15;;;;;;;0.97;0.70;;;;;;;;;;5092711;28;20026;-62
2023/06/25 07:50:42;;;;;;;0.20;0.20;;;;;;;;;;5110371;28;20028;-61
2023/06/25 07:53:09;;;;;;;0.80;0.60;;;;;;;;;;5110265;28;20034;-61
2023/06/25 07:55:44;;;;;;;0.50;0.37;;;;;;;;;;5106343;28;20015;-61
2023/06/25 07:58:11;;;;;;;1.27;0.83;;;;;;;;;;5107436;28;20375;-61
2023/06/25 08:00:38;;;;;;;1.20;0.70;;;;;;;;;;5107277;28;20116;-61
2023/06/25 08:03:05;;;;;;;1.23;0.90;;;;;;;;;;5109696;28;20027;-61
2023/06/25 08:05:32;;;;;;;0.80;0.70;;;;;;;;;;5112495;28;20038;-62
2023/06/25 08:07:59;;;;;;;2.13;1.37;;;;;;;;;;5098965;28;20660;-61
2023/06/25 08:10:25;;;;;;;1.40;1.13;;;;;;;;;;5092300;28;20028;-61
2023/06/25 08:12:55;;;;;;;0.50;0.50;;;;;;;;;;5092131;28;20085;-61
2023/06/25 08:15:22;;;;;;;0.60;0.60;;;;;;;;;;5103628;28;20031;-61
2023/06/25 08:17:49;;;;;;;1.27;0.90;;;;;;;;;;5088316;28;20487;-61
2023/06/25 08:20:15;;;;;;;1.37;0.80;;;;;;;;;;5096547;28;20042;-61
2023/06/25 08:22:42;;;;;;;0.70;0.70;;;;;;;;;;5106865;28;20061;-61
2023/06/25 08:25:19;;;;;;;1.83;1.30;;;;;;;;;;5099515;28;20121;-61
2023/06/25 08:27:46;;;;;;;1.67;1.33;;;;;;;;;;5091994;28;20013;-61
2023/06/25 08:30:13;;;;;;;1.57;1.10;;;;;;;;;;5101489;28;20398;-61
2023/06/25 08:32:39;;;;;;;1.43;1.17;;;;;;;;;;5112629;28;20020;-61
2023/06/25 08:35:06;;;;;;;2.13;1.20;;;;;;;;;;5102763;28;20035;-62
2023/06/25 08:37:33;;;;;;;1.20;0.83;;;;;;;;;;5069857;28;20031;-61
2023/06/25 08:40:00;;;;;;;0.97;0.90;;;;;;;;;;5100545;28;20065;-62
2023/06/25 08:42:27;;;;;;;5.40;0.97;;;;;;;;;;5086548;28;20024;-61
2023/06/25 08:44:54;;;;;;;1.43;1.03;;;;;;;;;;5086581;28;20068;-61
2023/06/25 08:47:26;;;;;;;1.67;1.13;;;;;;;;;;5087889;28;20020;-62
2023/06/25 08:49:54;;;;;;;1.63;0.90;;;;;;;;;;5092105;28;20058;-61
2023/06/25 08:52:21;;;;;;;1.40;1.07;;;;;;;;;;5102468;28;20060;-61
2023/06/25 08:54:48;;;;;;;0.97;0.80;;;;;;;;;;5112117;28;20481;-62
2023/06/25 08:57:15;;;;;;;0.83;0.70;;;;;;;;;;5112121;28;20485;-61
2023/06/25 08:59:41;;;;;;;3.03;1.40;;;;;;;;;;5104430;28;20119;-61
2023/06/25 09:02:08;;;;;;;4.27;1.00;;;;;;;;;;5086565;28;20035;-61
2023/06/25 09:04:35;;;;;;;1.23;1.00;;;;;;;;;;5086545;28;20024;-61
2023/06/25 09:07:06;;;;;;;0.90;0.63;;;;;;;;;;5087290;28;20097;-61
2023/06/25 09:09:32;;;;;;;1.17;0.90;;;;;;;;;;5091434;28;20020;-61
2023/06/25 09:11:59;;;;;;;1.50;0.97;;;;;;;;;;5095748;28;20012;-62
2023/06/25 09:14:26;;;;;;;1.20;0.67;;;;;;;;;;5103051;28;20057;-61
2023/06/25 09:16:54;;;;;;;1.27;0.90;;;;;;;;;;5115416;28;20539;-61
2023/06/25 09:19:22;;;;;;;0.90;0.80;;;;;;;;;;5113400;28;20036;-61
2023/06/25 09:21:49;;;;;;;1.33;0.80;;;;;;;;;;5094207;28;20016;-61
2023/06/25 09:24:20;;;;;;;1.17;0.80;;;;;;;;;;5090076;28;20039;-62
2023/06/25 09:26:47;;;;;;;1.00;0.90;;;;;;;;;;5090230;28;20051;-62
2023/06/25 09:29:14;;;;;;;0.80;0.63;;;;;;;;;;5089964;28;20039;-63
2023/06/25 09:31:44;;;;;;;0.63;0.63;;;;;;;;;;5070011;28;20438;-61
2023/06/25 09:34:11;;;;;;;1.03;0.80;;;;;;;;;;5105835;28;20086;-61
2023/06/25 09:36:38;;;;;;;0.60;0.60;;;;;;;;;;5115376;28;21199;-63
2023/06/25 09:39:06;;;;;;;2.33;1.33;;;;;;;;;;5095842;28;20071;-61
2023/06/25 09:41:37;;;;;;;1.20;0.90;;;;;;;;;;5095144;28;20416;-61
2023/06/25 09:44:05;;;;;;;2.63;1.77;;;;;;;;;;5093589;28;20058;-61
2023/06/25 09:46:35;;;;;;;5.93;1.30;;;;;;;;;;5089273;28;20032;-60
2023/06/25 09:49:03;;;;;;;1.33;1.13;;;;;;;;;;5089635;28;20046;-63
2023/06/25 09:51:41;;;;;;;1.33;1.00;;;;;;;;;;5092782;28;20024;-62
2023/06/25 09:54:11;;;;;;;0.97;0.87;;;;;;;;;;5110225;28;20036;-61
2023/06/25 09:56:39;;;;;;;1.60;0.97;;;;;;;;;;5115232;28;20020;-61
2023/06/25 09:59:06;;;;;;;1.10;1.00;;;;;;;;;;5113106;28;20035;-61
2023/06/25 10:01:33;;;;;;;1.40;1.20;;;;;;;;;;5114945;28;20076;-61
2023/06/25 10:04:00;;;;;;;2.03;1.07;;;;;;;;;;5095066;28;20150;-61
2023/06/25 10:06:27;;;;;;;1.27;0.97;;;;;;;;;;5113549;28;20027;-60
2023/06/25 10:08:54;;;;;;;0.70;0.70;;;;;;;;;;5108946;28;20107;-61
2023/06/25 10:11:21;;;;;;;1.43;0.90;;;;;;;;;;5108211;28;20038;-61
2023/06/25 10:13:48;;;;;;;1.30;0.93;;;;;;;;;;5089327;28;20261;-61
2023/06/25 10:16:19;;;;;;;1.57;0.90;;;;;;;;;;5104446;28;20043;-61
2023/06/25 10:18:48;;;;;;;2.07;1.20;;;;;;;;;;5114055;28;20036;-61
2023/06/25 10:21:19;;;;;;;1.43;0.73;;;;;;;;;;5114691;28;20110;-61
2023/06/25 10:23:55;;;;;;;1.63;1.07;;;;;;;;;;5108644;28;20024;-61
2023/06/25 10:26:26;;;;;;;0.60;0.53;;;;;;;;;;5104688;28;20043;-61
2023/06/25 10:28:52;;;;;;;1.63;1.10;;;;;;;;;;5112942;28;20027;-61
2023/06/25 10:31:19;;;;;;;1.30;0.90;;;;;;;;;;5108820;28;20371;-62
2023/06/25 10:33:46;;;;;;;0.67;0.57;;;;;;;;;;5091548;28;20046;-61
2023/06/25 10:36:13;;;;;;;2.87;1.20;;;;;;;;;;5078871;28;20028;-62
2023/06/25 10:38:40;;;;;;;1.07;0.87;;;;;;;;;;5069024;28;20111;-61
2023/06/25 10:41:07;;;;;;;1.17;0.90;;;;;;;;;;5103368;28;20484;-61
2023/06/25 10:43:37;;;;;;;1.80;0.97;;;;;;;;;;5114041;28;20399;-61
2023/06/25 10:46:04;;;;;;;0.57;0.53;;;;;;;;;;5113981;28;20031;-61
2023/06/25 10:48:30;;;;;;;1.07;0.80;;;;;;;;;;5113738;28;20447;-61
2023/06/25 10:50:57;;;;;;;1.20;1.00;;;;;;;;;;5112954;28;20048;-61
2023/06/25 10:53:24;;;;;;;2.90;0.83;;;;;;;;;;5108508;28;20439;-60
2023/06/25 10:55:52;;;;;;;1.83;1.20;;;;;;;;;;5108286;28;20073;-61
2023/06/25 10:58:19;;;;;;;2.37;1.23;;;;;;;;;;5108330;28;20534;-61
2023/06/25 11:00:52;;;;;;;4.90;1.17;;;;;;;;;;5108082;28;20493;-61
2023/06/25 11:03:19;;;;;;;1.50;0.87;;;;;;;;;;5100944;28;20032;-61
2023/06/25 11:05:46;;;;;;;0.90;0.77;;;;;;;;;;5093531;28;20035;-61
2023/06/25 11:08:16;;;;;;;4.50;1.03;;;;;;;;;;5093530;28;20051;-61
2023/06/25 11:10:43;;;;;;;1.13;0.90;;;;;;;;;;5108447;28;20122;-61
2023/06/25 11:13:13;;;;;;;0.63;0.50;;;;;;;;;;5111685;28;20032;-61
2023/06/25 11:15:40;;;;;;;0.87;0.73;;;;;;;;;;5097390;28;20020;-61
2023/06/25 11:18:10;;;;;;;2.43;1.00;;;;;;;;;;5106077;28;20373;-61
2023/06/25 11:20:41;;;;;;;0.50;0.50;;;;;;;;;;5088013;28;20491;-61
2023/06/25 11:23:11;;;;;;;1.53;1.03;;;;;;;;;;5088141;28;20024;-60
2023/06/25 11:25:38;;;;;;;2.00;1.07;;;;;;;;;;5093022;28;20547;-62
2023/06/25 11:28:15;;;;;;;1.40;1.10;;;;;;;;;;5092671;28;20032;-61
2023/06/25 11:30:43;;;;;;;0.77;0.67;;;;;;;;;;5093049;28;20024;-61
2023/06/25 11:33:18;;;;;;;0.53;0.43;;;;;;;;;;5093155;28;20028;-61
2023/06/25 11:35:50;;;;;;;1.67;1.15;;;;;;;;;;5091131;28;20028;-61
2023/06/25 11:38:28;;;;;;;0.87;0.80;;;;;;;;;;5087395;28;20295;-61
2023/06/25 11:40:59;;;;;;;1.23;1.00;;;;;;;;;;5087592;28;20112;-61
2023/06/25 11:43:26;;;;;;;1.50;1.20;;;;;;;;;;5091180;28;20027;-61
2023/06/25 11:45:53;;;;;;;1.83;1.13;;;;;;;;;;5101271;28;20055;-61
2023/06/25 11:48:20;;;;;;;2.20;1.27;;;;;;;;;;5092732;28;20068;-61
2023/06/25 11:50:49;;;;;;;1.47;1.03;;;;;;;;;;5092747;28;20024;-61
2023/06/25 11:53:16;;;;;;;2.90;1.67;;;;;;;;;;5106843;28;20030;-61
2023/06/25 11:55:43;;;;;;;0.40;0.40;;;;;;;;;;5102342;28;20051;-61
2023/06/25 11:58:10;;;;;;;0.93;0.60;;;;;;;;;;5090682;28;20032;-61
2023/06/25 12:00:37;;;;;;;0.73;0.70;;;;;;;;;;5087112;28;20032;-61
2023/06/25 12:03:04;;;;;;;2.13;1.40;;;;;;;;;;5087364;28;20024;-61
2023/06/25 12:05:31;;;;;;;2.03;1.40;;;;;;;;;;5087154;28;20352;-61
2023/06/25 12:07:58;;;;;;;1.60;1.17;;;;;;;;;;5090161;28;20040;-61
2023/06/25 12:10:27;;;;;;;1.27;0.97;;;;;;;;;;5112138;28;20118;-61
2023/06/25 12:12:54;;;;;;;2.97;1.10;;;;;;;;;;5112227;28;20028;-61
2023/06/25 12:15:22;;;;;;;1.80;1.27;;;;;;;;;;5096242;28;20060;-61
2023/06/25 12:17:48;;;;;;;1.90;1.10;;;;;;;;;;5092365;28;20019;-61
2023/06/25 12:20:15;;;;;;;1.93;1.30;;;;;;;;;;5090856;28;20386;-61
2023/06/25 12:22:42;;;;;;;1.70;0.80;;;;;;;;;;5089035;28;20048;-61
2023/06/25 12:25:09;;;;;;;2.03;0.93;;;;;;;;;;5106469;28;20382;-61
2023/06/25 12:27:39;;;;;;;0.77;0.77;;;;;;;;;;5097451;28;20093;-61
2023/06/25 12:30:07;;;;;;;1.37;1.00;;;;;;;;;;5088301;28;20036;-61
2023/06/25 12:32:33;;;;;;;1.97;1.43;;;;;;;;;;5092293;28;20032;-61
2023/06/25 12:35:00;;;;;;;1.47;1.03;;;;;;;;;;5093366;28;20021;-61
2023/06/25 12:37:27;;;;;;;0.97;0.77;;;;;;;;;;5078252;28;20028;-61
2023/06/25 12:39:54;;;;;;;1.40;0.93;;;;;;;;;;5101371;28;20495;-61
2023/06/25 12:42:20;;;;;;;1.10;0.90;;;;;;;;;;5092047;28;20107;-61
2023/06/25 12:44:47;;;;;;;0.90;0.83;;;;;;;;;;5090921;28;20091;-60
2023/06/25 12:47:14;;;;;;;1.37;1.07;;;;;;;;;;5090906;28;20421;-61
2023/06/25 12:49:41;;;;;;;3.33;1.20;;;;;;;;;;5090915;28;20389;-60
2023/06/25 12:52:08;;;;;;;1.27;1.00;;;;;;;;;;5090806;28;20028;-61
2023/06/25 12:54:35;;;;;;;2.43;1.10;;;;;;;;;;5096085;28;20031;-61
2023/06/25 12:57:01;;;;;;;1.07;0.90;;;;;;;;;;5095965;28;20375;-61
2023/06/25 12:59:28;;;;;;;2.67;1.33;;;;;;;;;;5095399;28;20537;-61
2023/06/25 13:01:56;;;;;;;1.37;1.03;;;;;;;;;;5095900;28;20028;-62
2023/06/25 13:04:23;;;;;;;4.50;1.60;;;;;;;;;;5095993;28;20050;-61
2023/06/25 13:06:50;;;;;;;14.37;1.40;;;;;;;;;;5090290;28;20028;-61
2023/06/25 13:09:17;;;;;;;1.53;1.10;;;;;;;;;;5110269;28;20133;-61
2023/06/25 13:11:43;;;;;;;2.10;1.20;;;;;;;;;;5110361;28;20024;-61
2023/06/25 13:14:10;;;;;;;2.00;1.40;;;;;;;;;;5110775;28;20030;-61
2023/06/25 13:16:37;;;;;;;1.60;1.23;;;;;;;;;;5105099;28;20024;-61
2023/06/25 13:19:04;;;;;;;3.53;2.03;;;;;;;;;;5095455;28;20036;-61
2023/06/25 13:21:30;;;;;;;1.13;0.97;;;;;;;;;;5095629;28;20486;-61
2023/06/25 13:23:57;;;;;;;1.70;1.13;;;;;;;;;;5111185;28;20023;-61
2023/06/25 13:26:24;;;;;;;1.47;1.13;;;;;;;;;;5115363;28;20015;-61
2023/06/25 13:28:51;;;;;;;2.67;1.53;;;;;;;;;;5110707;28;20102;-60
2023/06/25 13:31:17;;;;;;;2.43;1.77;;;;;;;;;;5103280;28;20020;-61
2023/06/25 13:33:44;;;;;;;1.40;1.20;;;;;;;;;;5090880;28;20028;-61
2023/06/25 13:36:11;;;;;;;1.03;0.90;;;;;;;;;;5109837;28;20031;-61
2023/06/25 13:38:40;;;;;;;1.83;1.27;;;;;;;;;;5100368;28;20551;-61
2023/06/25 13:41:07;;;;;;;2.37;1.40;;;;;;;;;;5095031;28;20038;-61
2023/06/25 13:43:34;;;;;;;2.00;1.10;;;;;;;;;;5095312;28;20028;-61
2023/06/25 13:46:02;;;;;;;2.30;1.20;;;;;;;;;;5095162;28;20028;-61
2023/06/25 13:48:31;;;;;;;2.53;1.27;;;;;;;;;;5099815;28;20012;-61
2023/06/25 13:51:00;;;;;;;1.57;1.27;;;;;;;;;;5110367;28;20024;-61
2023/06/25 13:53:27;;;;;;;1.23;0.93;;;;;;;;;;5108425;28;20240;-61
2023/06/25 13:55:54;;;;;;;1.03;0.83;;;;;;;;;;5109788;28;20378;-61
2023/06/25 13:58:21;;;;;;;1.33;0.67;;;;;;;;;;5109529;28;20488;-62
2023/06/25 14:00:50;;;;;;;1.83;1.17;;;;;;;;;;5113186;28;20497;-61
2023/06/25 14:03:16;;;;;;;1.20;1.00;;;;;;;;;;5115293;28;20077;-61
2023/06/25 14:05:43;;;;;;;1.67;1.13;;;;;;;;;;5114419;28;20027;-61
2023/06/25 14:08:10;;;;;;;3.27;1.13;;;;;;;;;;5103702;28;20032;-61
2023/06/25 14:10:37;;;;;;;1.00;0.80;;;;;;;;;;5095724;28;20071;-61
2023/06/25 14:13:04;;;;;;;2.30;0.97;;;;;;;;;;5090544;28;20500;-61
2023/06/25 14:15:30;;;;;;;0.80;0.80;;;;;;;;;;5098526;28;20363;-61
2023/06/25 14:17:57;;;;;;;1.10;0.80;;;;;;;;;;5109002;28;20031;-61
2023/06/25 14:20:24;;;;;;;1.03;0.77;;;;;;;;;;5109254;28;20020;-61
2023/06/25 14:22:51;;;;;;;1.13;0.60;;;;;;;;;;5111808;27;20020;-61
2023/06/25 14:25:18;;;;;;;0.70;0.60;;;;;;;;;;5112195;28;20076;-61
2023/06/25 14:27:44;;;;;;;0.50;0.50;;;;;;;;;;5094491;28;20616;-61
2023/06/25 14:30:11;;;;;;;0.60;0.50;;;;;;;;;;5096322;28;20554;-61
2023/06/25 14:32:38;;;;;;;0.93;0.57;;;;;;;;;;5114759;28;20027;-61
2023/06/25 14:35:05;;;;;;;0.30;0.30;;;;;;;;;;5109972;28;20028;-61
2023/06/25 14:37:32;;;;;;;1.47;0.57;;;;;;;;;;5083981;28;20034;-61
2023/06/25 14:39:58;;;;;;;0.40;0.40;;;;;;;;;;5088176;28;20032;-62
2023/06/25 14:42:25;;;;;;;0.77;0.50;;;;;;;;;;5068454;28;20028;-61
2023/06/25 14:44:52;;;;;;;0.83;0.67;;;;;;;;;;5071007;28;20025;-61